Time;durP1;ratioP1;P1;durP2;ratioP2;P2;SDS_P1;SDS_P2;PMS_P1;PMS_P2;Temp;Humidity;BMP_temperature;BMP_pressure;BME280_temperature;BME280_humidity;BME280_pressure;Samples;Min_cycle;Max_cycle;Signal;HPM_P1;HPM_P2
2023/04/21 00:02:16;;;;;;;17.47;11.20;;;9.20;99.90;;;;;;4987122;28;20305;-77
2023/04/21 00:04:44;;;;;;;19.90;11.50;;;9.20;99.90;;;;;;4997228;28;20229;-71
2023/04/21 00:07:10;;;;;;;17.23;11.10;;;9.20;99.90;;;;;;4998556;28;20221;-69
2023/04/21 00:09:36;;;;;;;15.57;10.07;;;9.20;99.90;;;;;;4998938;28;20456;-70
2023/04/21 00:12:02;;;;;;;19.80;11.33;;;9.20;99.90;;;;;;4986744;28;20476;-71
2023/04/21 00:14:27;;;;;;;18.57;12.63;;;9.20;99.90;;;;;;4996564;28;20720;-71
2023/04/21 00:16:53;;;;;;;16.17;11.57;;;9.00;99.90;;;;;;5003994;28;20248;-72
2023/04/21 00:19:19;;;;;;;17.53;12.00;;;9.00;99.90;;;;;;5005316;28;20241;-72
2023/04/21 00:21:45;;;;;;;17.13;11.03;;;9.00;99.90;;;;;;5006636;28;20355;-71
2023/04/21 00:24:10;;;;;;;15.73;10.67;;;8.90;99.90;;;;;;5008537;28;20465;-71
2023/04/21 00:26:36;;;;;;;19.30;12.00;;;9.00;99.90;;;;;;5007535;28;20228;-71
2023/04/21 00:29:02;;;;;;;15.03;10.40;;;8.90;99.90;;;;;;5006579;28;20218;-71
2023/04/21 00:31:29;;;;;;;16.93;11.67;;;8.90;99.90;;;;;;5006817;28;20229;-71
2023/04/21 00:33:56;;;;;;;14.70;9.83;;;8.90;99.90;;;;;;4995078;28;20460;-71
2023/04/21 00:36:23;;;;;;;15.90;10.83;;;8.90;99.90;;;;;;4995225;28;20460;-69
2023/04/21 00:38:49;;;;;;;18.60;11.47;;;8.90;99.90;;;;;;5005558;28;20225;-71
2023/04/21 00:41:15;;;;;;;15.67;10.97;;;8.90;99.90;;;;;;4988918;28;20967;-70
2023/04/21 00:44:19;;;;;;;16.97;11.07;;;8.80;99.90;;;;;;4994355;28;20455;-70
2023/04/21 00:46:45;;;;;;;14.80;10.17;;;8.80;99.90;;;;;;4950533;28;20226;-71
2023/04/21 00:49:12;;;;;;;19.23;11.40;;;8.80;99.90;;;;;;4951141;28;20454;-71
2023/04/21 00:51:38;;;;;;;17.00;12.00;;;8.80;99.90;;;;;;4959429;28;20448;-71
2023/04/21 00:54:06;;;;;;;19.23;12.93;;;8.80;99.90;;;;;;5002648;28;20535;-71
2023/04/21 00:56:34;;;;;;;20.13;11.53;;;8.80;99.90;;;;;;5006186;28;20460;-71
2023/04/21 00:59:01;;;;;;;18.47;11.93;;;8.80;99.90;;;;;;5010097;28;20472;-71
2023/04/21 01:01:31;;;;;;;18.67;12.00;;;8.80;99.90;;;;;;4989708;28;20529;-71
2023/04/21 01:03:58;;;;;;;15.57;10.23;;;8.70;99.90;;;;;;4990664;28;20487;-72
2023/04/21 01:06:28;;;;;;;23.20;11.93;;;8.70;99.90;;;;;;5003264;28;20465;-70
2023/04/21 01:08:55;;;;;;;18.17;11.13;;;8.70;99.90;;;;;;5007479;28;20452;-71
2023/04/21 01:11:21;;;;;;;18.63;13.03;;;8.60;99.90;;;;;;5009042;28;20460;-71
2023/04/21 01:13:47;;;;;;;19.00;11.87;;;8.60;99.90;;;;;;4991716;28;20225;-71
2023/04/21 01:16:17;;;;;;;18.20;11.93;;;8.60;99.90;;;;;;5010668;28;20216;-71
2023/04/21 01:18:44;;;;;;;19.20;11.80;;;8.50;99.90;;;;;;5009411;28;20218;-70
2023/04/21 01:21:10;;;;;;;21.23;12.30;;;8.50;99.90;;;;;;5009722;28;20510;-70
2023/04/21 01:23:36;;;;;;;20.60;12.70;;;8.50;99.90;;;;;;4990794;28;20458;-71
2023/04/21 01:26:02;;;;;;;18.60;11.40;;;8.50;99.90;;;;;;5010806;28;20496;-71
2023/04/21 01:28:27;;;;;;;19.93;11.70;;;8.40;99.90;;;;;;5009789;28;20229;-71
2023/04/21 01:30:53;;;;;;;16.40;11.80;;;8.40;99.90;;;;;;4997672;28;20220;-71
2023/04/21 01:33:21;;;;;;;19.33;12.93;;;8.40;99.90;;;;;;5004842;28;20242;-71
2023/04/21 01:35:47;;;;;;;18.07;11.20;;;8.40;99.90;;;;;;5010287;28;20463;-71
2023/04/21 01:38:13;;;;;;;18.37;11.30;;;8.30;99.90;;;;;;5009792;28;20986;-71
2023/04/21 01:40:40;;;;;;;16.17;11.33;;;8.30;99.90;;;;;;5009883;28;20233;-72
2023/04/21 01:43:06;;;;;;;20.63;12.43;;;8.30;99.90;;;;;;4987370;28;20497;-71
2023/04/21 01:45:33;;;;;;;16.30;10.83;;;8.30;99.90;;;;;;5013590;28;20842;-71
2023/04/21 01:47:59;;;;;;;16.63;11.20;;;8.20;99.90;;;;;;4984811;28;20481;-71
2023/04/21 01:50:24;;;;;;;20.17;11.97;;;8.20;99.90;;;;;;5009479;28;20310;-70
2023/04/21 01:52:50;;;;;;;17.30;11.10;;;8.20;99.90;;;;;;5009780;28;20233;-71
2023/04/21 01:55:16;;;;;;;16.30;10.90;;;8.20;99.90;;;;;;5010578;28;20225;-71
2023/04/21 01:57:41;;;;;;;16.50;11.27;;;8.10;99.90;;;;;;4989234;28;20226;-71
2023/04/21 02:00:08;;;;;;;21.27;13.40;;;8.10;99.90;;;;;;5009449;28;20591;-71
2023/04/21 02:02:40;;;;;;;17.67;11.80;;;8.10;99.90;;;;;;5012806;28;20730;-71
2023/04/21 02:05:06;;;;;;;19.93;12.07;;;8.10;99.90;;;;;;5009952;28;20472;-71
2023/04/21 02:07:32;;;;;;;20.83;13.20;;;8.10;99.90;;;;;;5005380;28;20241;-71
2023/04/21 02:09:58;;;;;;;20.50;12.40;;;8.10;99.90;;;;;;5002646;28;20237;-71
2023/04/21 02:12:23;;;;;;;18.50;11.67;;;8.00;99.90;;;;;;5008986;28;20248;-72
2023/04/21 02:14:49;;;;;;;18.67;12.33;;;8.00;99.90;;;;;;5007342;28;20280;-71
2023/04/21 02:17:16;;;;;;;21.20;12.20;;;8.00;99.90;;;;;;4998057;28;20213;-71
2023/04/21 02:19:42;;;;;;;18.83;11.90;;;8.00;99.90;;;;;;5005771;28;20244;-69
2023/04/21 02:22:09;;;;;;;20.40;12.50;;;8.00;99.90;;;;;;4992243;28;20471;-71
2023/04/21 02:24:35;;;;;;;19.43;12.43;;;8.00;99.90;;;;;;5007027;28;20225;-71
2023/04/21 02:27:00;;;;;;;20.10;12.17;;;8.00;99.90;;;;;;5008405;28;20543;-71
2023/04/21 02:29:27;;;;;;;21.00;12.80;;;8.00;99.90;;;;;;5008742;28;20243;-71
2023/04/21 02:31:53;;;;;;;18.50;12.47;;;8.00;99.90;;;;;;5000444;28;20449;-71
2023/04/21 02:34:19;;;;;;;17.47;11.67;;;7.90;99.90;;;;;;5008658;28;20225;-71
2023/04/21 02:36:45;;;;;;;19.37;12.53;;;7.90;99.90;;;;;;4996620;28;20217;-71
2023/04/21 02:39:11;;;;;;;18.87;12.13;;;7.90;99.90;;;;;;5009202;28;20482;-70
2023/04/21 02:41:37;;;;;;;17.83;11.87;;;7.90;99.90;;;;;;5008815;28;20232;-70
2023/04/21 02:44:03;;;;;;;20.50;12.10;;;7.90;99.90;;;;;;4990272;28;20554;-70
2023/04/21 02:46:29;;;;;;;20.40;11.63;;;7.80;99.90;;;;;;4991263;28;20515;-69
2023/04/21 02:48:58;;;;;;;18.63;11.80;;;7.80;99.90;;;;;;5008317;28;20243;-71
2023/04/21 02:51:23;;;;;;;16.80;11.50;;;7.80;99.90;;;;;;5008555;28;20542;-71
2023/04/21 02:53:49;;;;;;;19.67;11.30;;;7.80;99.90;;;;;;5008585;28;20232;-71
2023/04/21 02:56:15;;;;;;;20.60;12.00;;;7.70;99.90;;;;;;4992185;28;20259;-70
2023/04/21 02:58:41;;;;;;;17.60;12.00;;;7.70;99.90;;;;;;4988763;28;20301;-69
2023/04/21 03:01:06;;;;;;;20.33;12.43;;;7.70;99.90;;;;;;5007409;28;20480;-70
2023/04/21 03:03:34;;;;;;;23.00;12.57;;;7.70;99.90;;;;;;4988186;28;20607;-71
2023/04/21 03:06:04;;;;;;;18.20;11.67;;;7.70;99.90;;;;;;5009532;28;20480;-71
2023/04/21 03:08:30;;;;;;;22.43;12.13;;;7.70;99.90;;;;;;5007707;28;20467;-71
2023/04/21 03:10:56;;;;;;;20.20;13.03;;;7.70;99.90;;;;;;5007415;28;20471;-71
2023/04/21 03:13:23;;;;;;;20.80;12.73;;;7.60;99.90;;;;;;5007150;28;20460;-71
2023/04/21 03:15:50;;;;;;;22.80;12.87;;;7.60;99.90;;;;;;5006399;28;20228;-71
2023/04/21 03:18:16;;;;;;;18.60;11.77;;;7.60;99.90;;;;;;4991998;28;20499;-71
2023/04/21 03:20:42;;;;;;;21.60;13.60;;;7.70;99.90;;;;;;5006524;28;20549;-70
2023/04/21 03:23:08;;;;;;;21.83;12.17;;;7.70;99.90;;;;;;5005992;28;20227;-70
2023/04/21 03:25:34;;;;;;;24.20;13.47;;;7.70;99.90;;;;;;5003293;28;20304;-71
2023/04/21 03:28:00;;;;;;;19.90;12.67;;;7.70;99.90;;;;;;4991706;28;20699;-71
2023/04/21 03:30:26;;;;;;;23.93;13.33;;;7.70;99.90;;;;;;5006512;28;20537;-71
2023/04/21 03:32:52;;;;;;;18.93;11.90;;;7.70;99.90;;;;;;4989350;28;20252;-71
2023/04/21 03:35:19;;;;;;;17.93;11.00;;;7.70;99.90;;;;;;5007826;28;20224;-71
2023/04/21 03:37:44;;;;;;;22.83;12.87;;;7.70;99.90;;;;;;5007733;28;21006;-71
2023/04/21 03:40:10;;;;;;;19.77;12.57;;;7.70;99.90;;;;;;5008911;28;20229;-71
2023/04/21 03:42:36;;;;;;;21.40;12.83;;;7.70;99.90;;;;;;4991563;28;20279;-70
2023/04/21 03:45:09;;;;;;;22.73;12.70;;;7.70;99.90;;;;;;5008111;28;20475;-71
2023/04/21 03:47:35;;;;;;;24.90;12.70;;;7.70;99.90;;;;;;4988096;28;20605;-71
2023/04/21 03:50:03;;;;;;;18.60;11.77;;;7.70;99.90;;;;;;4990147;28;20544;-69
2023/04/21 03:52:29;;;;;;;18.43;12.60;;;7.70;99.90;;;;;;5007491;28;20226;-70
2023/04/21 03:54:55;;;;;;;23.03;12.43;;;7.80;99.90;;;;;;4991722;28;20529;-71
2023/04/21 03:57:20;;;;;;;30.97;15.40;;;7.80;99.90;;;;;;5008117;28;20224;-72
2023/04/21 03:59:46;;;;;;;21.10;13.30;;;7.80;99.90;;;;;;5005040;28;20296;-71
2023/04/21 04:02:12;;;;;;;22.73;12.97;;;7.80;99.90;;;;;;5004650;28;20225;-70
2023/04/21 04:04:37;;;;;;;26.17;14.17;;;7.80;99.90;;;;;;5001816;28;20239;-71
2023/04/21 04:07:03;;;;;;;22.40;13.60;;;7.80;99.90;;;;;;5006491;28;20220;-70
2023/04/21 04:09:29;;;;;;;27.40;14.60;;;7.80;99.90;;;;;;4991005;28;20227;-71
2023/04/21 04:11:55;;;;;;;24.80;13.60;;;7.80;99.90;;;;;;4991517;28;20460;-70
2023/04/21 04:14:20;;;;;;;25.03;14.00;;;7.80;99.90;;;;;;5007383;28;20615;-70
2023/04/21 04:16:46;;;;;;;27.00;14.80;;;7.90;99.90;;;;;;5005032;28;20699;-71
2023/04/21 04:19:11;;;;;;;28.50;16.30;;;7.90;99.90;;;;;;5006995;28;20225;-70
2023/04/21 04:21:37;;;;;;;26.40;14.43;;;7.90;99.90;;;;;;5006390;28;20667;-70
2023/04/21 04:24:04;;;;;;;28.93;16.30;;;7.90;99.90;;;;;;5006879;28;20634;-70
2023/04/21 04:26:32;;;;;;;30.40;16.90;;;7.90;99.90;;;;;;4997362;28;20576;-70
2023/04/21 04:28:59;;;;;;;30.20;15.47;;;7.90;99.90;;;;;;5005153;28;20456;-70
2023/04/21 04:31:25;;;;;;;24.07;14.17;;;7.90;99.90;;;;;;4990247;28;20525;-70
2023/04/21 04:33:51;;;;;;;28.70;15.53;;;7.90;99.90;;;;;;5007747;28;20455;-71
2023/04/21 04:36:16;;;;;;;33.03;17.40;;;7.90;99.90;;;;;;5004272;28;20225;-70
2023/04/21 04:38:42;;;;;;;32.50;16.17;;;7.90;99.90;;;;;;5008043;28;20807;-70
2023/04/21 04:41:08;;;;;;;32.47;16.40;;;7.90;99.90;;;;;;5003281;28;20730;-71
2023/04/21 04:43:37;;;;;;;25.77;14.87;;;7.90;99.90;;;;;;5006447;28;20216;-71
2023/04/21 04:46:04;;;;;;;28.50;15.60;;;8.00;99.90;;;;;;5008036;28;20221;-71
2023/04/21 04:48:30;;;;;;;28.23;15.90;;;8.00;99.90;;;;;;4992880;28;20467;-70
2023/04/21 04:50:56;;;;;;;32.63;16.27;;;8.00;99.90;;;;;;5008529;28;20977;-71
2023/04/21 04:53:21;;;;;;;26.77;13.70;;;8.00;99.90;;;;;;5001568;28;20480;-71
2023/04/21 04:55:47;;;;;;;26.27;14.27;;;8.00;99.90;;;;;;5002793;28;20229;-71
2023/04/21 04:58:13;;;;;;;25.93;14.23;;;8.00;99.90;;;;;;4999348;28;20221;-69
2023/04/21 05:00:39;;;;;;;32.50;16.13;;;8.00;99.90;;;;;;4999333;28;20260;-71
2023/04/21 05:03:05;;;;;;;35.20;15.73;;;8.00;99.90;;;;;;5007796;28;20914;-71
2023/04/21 05:05:31;;;;;;;30.33;16.30;;;8.00;99.90;;;;;;5007401;28;20463;-70
2023/04/21 05:07:57;;;;;;;31.10;15.30;;;8.10;99.90;;;;;;5002415;28;20889;-68
2023/04/21 05:10:23;;;;;;;33.23;16.10;;;8.10;99.90;;;;;;5002232;28;20228;-70
2023/04/21 05:12:49;;;;;;;31.07;15.60;;;8.10;99.90;;;;;;5002486;28;20859;-69
2023/04/21 05:15:16;;;;;;;33.37;16.47;;;8.10;99.90;;;;;;5006095;28;20312;-69
2023/04/21 05:17:42;;;;;;;25.27;15.27;;;8.10;99.90;;;;;;5005849;28;20535;-69
2023/04/21 05:20:08;;;;;;;32.00;15.40;;;8.10;99.90;;;;;;5002617;28;20543;-69
2023/04/21 05:22:37;;;;;;;31.33;15.63;;;8.10;99.90;;;;;;5018336;28;20217;-70
2023/04/21 05:25:04;;;;;;;30.03;15.30;;;8.10;99.90;;;;;;5008143;28;20547;-68
2023/04/21 05:27:30;;;;;;;29.33;15.57;;;8.10;99.90;;;;;;5008344;28;20463;-71
2023/04/21 05:29:56;;;;;;;28.87;15.13;;;8.00;99.90;;;;;;4983277;28;20464;-71
2023/04/21 05:32:21;;;;;;;26.40;14.77;;;8.00;99.90;;;;;;5009507;28;20221;-73
2023/04/21 05:34:47;;;;;;;33.50;16.80;;;8.00;99.90;;;;;;5008919;28;20222;-72
2023/04/21 05:37:12;;;;;;;32.10;15.77;;;8.10;99.90;;;;;;5009774;28;20221;-70
2023/04/21 05:39:38;;;;;;;32.33;15.53;;;8.10;99.90;;;;;;5002257;28;20262;-71
2023/04/21 05:42:04;;;;;;;26.47;14.30;;;8.10;99.90;;;;;;5002582;28;20221;-70
2023/04/21 05:44:30;;;;;;;29.53;14.60;;;8.20;99.90;;;;;;5008356;28;20221;-69
2023/04/21 05:46:55;;;;;;;30.03;16.20;;;8.20;99.90;;;;;;5009710;28;20229;-69
2023/04/21 05:49:21;;;;;;;31.03;16.77;;;8.10;99.90;;;;;;5009092;28;20217;-70
2023/04/21 05:51:46;;;;;;;32.30;16.40;;;8.10;99.90;;;;;;5008001;28;20636;-71
2023/04/21 05:54:15;;;;;;;27.90;14.80;;;8.10;99.90;;;;;;5009902;28;20268;-70
2023/04/21 05:56:41;;;;;;;29.60;15.37;;;8.20;99.90;;;;;;4990030;28;20518;-71
2023/04/21 05:59:06;;;;;;;26.53;14.67;;;8.20;99.90;;;;;;5009231;28;20516;-70
2023/04/21 06:01:32;;;;;;;31.43;15.30;;;8.20;99.90;;;;;;4989092;28;20565;-70
2023/04/21 06:03:58;;;;;;;34.60;16.93;;;8.20;99.90;;;;;;5009392;28;20229;-71
2023/04/21 06:06:26;;;;;;;28.60;14.90;;;8.20;99.90;;;;;;5009733;28;20220;-69
2023/04/21 06:08:52;;;;;;;29.13;15.17;;;8.10;99.90;;;;;;5008511;28;20240;-71
2023/04/21 06:11:17;;;;;;;31.23;16.10;;;8.10;99.90;;;;;;5009462;28;20968;-71
2023/04/21 06:13:43;;;;;;;34.03;15.33;;;8.20;99.90;;;;;;5007391;28;20229;-70
2023/04/21 06:16:09;;;;;;;33.87;15.57;;;8.20;99.90;;;;;;5010335;28;20225;-70
2023/04/21 06:18:35;;;;;;;26.47;15.77;;;8.20;99.90;;;;;;5005064;28;20225;-71
2023/04/21 06:21:00;;;;;;;33.03;15.40;;;8.20;99.90;;;;;;5020748;28;20229;-70
2023/04/21 06:23:26;;;;;;;34.43;15.83;;;8.20;99.90;;;;;;5009759;28;20225;-70
2023/04/21 06:26:03;;;;;;;32.17;16.73;;;8.20;99.90;;;;;;5008867;28;20228;-70
2023/04/21 06:28:30;;;;;;;32.33;15.37;;;8.20;99.90;;;;;;5007463;28;20253;-70
2023/04/21 06:30:56;;;;;;;31.30;15.57;;;8.20;99.90;;;;;;5005838;28;20464;-70
2023/04/21 06:33:22;;;;;;;28.90;14.00;;;8.20;99.90;;;;;;5007094;28;20463;-70
2023/04/21 06:35:48;;;;;;;30.03;14.70;;;8.20;99.90;;;;;;5007969;28;20459;-70
2023/04/21 06:38:14;;;;;;;28.73;14.83;;;8.20;99.90;;;;;;5008579;28;20582;-70
2023/04/21 06:40:39;;;;;;;27.53;14.70;;;8.20;99.90;;;;;;5007263;28;20249;-70
2023/04/21 06:43:05;;;;;;;30.97;14.37;;;8.20;99.90;;;;;;5007759;28;20221;-70
2023/04/21 06:45:31;;;;;;;26.80;14.50;;;8.30;99.90;;;;;;5007437;28;20244;-71
2023/04/21 06:47:57;;;;;;;27.83;15.10;;;8.20;99.90;;;;;;5004234;28;20222;-70
2023/04/21 06:50:23;;;;;;;27.53;14.17;;;8.30;99.90;;;;;;5007977;28;20260;-71
2023/04/21 06:52:48;;;;;;;26.30;15.30;;;8.20;99.90;;;;;;5006273;28;20638;-69
2023/04/21 06:55:14;;;;;;;31.17;17.03;;;8.30;99.90;;;;;;5007078;28;20236;-71
2023/04/21 06:57:40;;;;;;;24.13;13.40;;;8.30;99.90;;;;;;4986429;28;20228;-69
2023/04/21 07:00:06;;;;;;;31.23;15.30;;;8.30;99.90;;;;;;5003699;28;20487;-71
2023/04/21 07:02:32;;;;;;;31.20;14.30;;;8.30;99.90;;;;;;5006329;28;20260;-71
2023/04/21 07:04:57;;;;;;;26.60;14.03;;;8.30;99.90;;;;;;5007311;28;20500;-70
2023/04/21 07:07:23;;;;;;;26.60;15.07;;;8.40;99.90;;;;;;5005432;28;20257;-72
2023/04/21 07:09:49;;;;;;;23.07;14.23;;;8.40;99.90;;;;;;5004686;28;20252;-70
2023/04/21 07:12:14;;;;;;;24.97;13.93;;;8.40;99.90;;;;;;5006708;28;20244;-71
2023/04/21 07:14:40;;;;;;;30.57;15.30;;;8.40;99.90;;;;;;5001951;28;20221;-70
2023/04/21 07:17:05;;;;;;;30.57;14.67;;;8.40;99.90;;;;;;5007930;28;20244;-70
2023/04/21 07:19:31;;;;;;;24.60;13.73;;;8.40;99.90;;;;;;4989667;28;20249;-71
2023/04/21 07:21:57;;;;;;;29.57;14.83;;;8.40;99.90;;;;;;4990257;28;20226;-71
2023/04/21 07:24:23;;;;;;;23.10;13.33;;;8.50;99.90;;;;;;5008014;28;20217;-71
2023/04/21 07:26:49;;;;;;;23.87;12.63;;;8.50;99.90;;;;;;5008092;28;20448;-70
2023/04/21 07:29:15;;;;;;;24.10;12.63;;;8.50;99.90;;;;;;5008942;28;20216;-70
2023/04/21 07:31:40;;;;;;;26.23;14.77;;;8.50;99.90;;;;;;5009598;28;20690;-70
2023/04/21 07:34:06;;;;;;;25.80;13.33;;;8.60;99.90;;;;;;5005857;28;20225;-71
2023/04/21 07:36:32;;;;;;;29.13;14.70;;;8.60;99.90;;;;;;4989772;28;20244;-71
2023/04/21 07:38:57;;;;;;;26.70;14.20;;;8.60;99.90;;;;;;4989809;28;20229;-70
2023/04/21 07:41:23;;;;;;;28.67;14.73;;;8.70;99.90;;;;;;5005908;28;20217;-70
2023/04/21 07:43:48;;;;;;;26.20;14.87;;;8.70;99.90;;;;;;5007740;28;20228;-71
2023/04/21 07:46:14;;;;;;;21.93;12.40;;;8.80;99.90;;;;;;4988273;28;20305;-70
2023/04/21 07:48:40;;;;;;;24.07;13.07;;;8.80;99.90;;;;;;5001285;28;20225;-70
2023/04/21 07:51:05;;;;;;;27.70;13.50;;;8.90;99.90;;;;;;5001426;28;20237;-70
2023/04/21 07:53:31;;;;;;;29.70;14.90;;;8.90;99.90;;;;;;5007718;28;20291;-71
2023/04/21 07:55:57;;;;;;;27.87;14.20;;;8.90;99.90;;;;;;5006387;28;20728;-71
2023/04/21 07:58:23;;;;;;;23.17;12.37;;;9.00;99.90;;;;;;5005989;28;20785;-71
2023/04/21 08:00:49;;;;;;;25.87;13.67;;;9.00;99.90;;;;;;4999585;28;20230;-70
2023/04/21 08:03:15;;;;;;;27.47;13.60;;;9.10;99.90;;;;;;5005852;28;20566;-71
2023/04/21 08:05:41;;;;;;;27.70;13.87;;;9.10;99.90;;;;;;4999748;28;20481;-69
2023/04/21 08:08:06;;;;;;;25.77;13.87;;;9.20;99.90;;;;;;4986428;28;20237;-70
2023/04/21 08:10:32;;;;;;;26.67;14.07;;;9.30;99.90;;;;;;5006493;28;20248;-71
2023/04/21 08:12:58;;;;;;;31.33;15.13;;;9.40;99.90;;;;;;5001396;28;20234;-70
2023/04/21 08:15:24;;;;;;;30.00;16.00;;;9.40;99.90;;;;;;5017597;28;20467;-69
2023/04/21 08:17:50;;;;;;;26.27;15.07;;;9.50;99.90;;;;;;5003061;28;20237;-71
2023/04/21 08:20:16;;;;;;;26.40;14.73;;;9.60;99.90;;;;;;5010776;28;20247;-69
2023/04/21 08:22:41;;;;;;;26.93;13.67;;;9.70;99.90;;;;;;4994358;28;20445;-69
2023/04/21 08:25:08;;;;;;;24.63;13.80;;;9.80;99.90;;;;;;5009433;28;20222;-70
2023/04/21 08:27:36;;;;;;;26.37;14.50;;;9.90;99.90;;;;;;5005854;28;20617;-71
2023/04/21 08:30:01;;;;;;;23.37;13.83;;;10.00;99.90;;;;;;5011084;28;20476;-71
2023/04/21 08:32:27;;;;;;;23.20;14.60;;;10.30;99.90;;;;;;5005219;28;20471;-71
2023/04/21 08:34:53;;;;;;;22.37;13.47;;;10.40;99.90;;;;;;4988403;28;20217;-71
2023/04/21 08:37:20;;;;;;;21.90;13.70;;;10.60;99.90;;;;;;5007660;28;20279;-70
2023/04/21 08:39:49;;;;;;;29.33;14.70;;;10.80;99.90;;;;;;5009613;28;20468;-71
2023/04/21 08:42:16;;;;;;;21.90;14.57;;;11.00;99.90;;;;;;5012161;28;20994;-71
2023/04/21 08:44:43;;;;;;;28.23;15.30;;;11.10;99.90;;;;;;4995085;28;20453;-70
2023/04/21 08:47:13;;;;;;;25.20;14.77;;;11.10;99.90;;;;;;5006663;28;21134;-71
2023/04/21 08:49:41;;;;;;;22.53;14.40;;;11.20;99.90;;;;;;5005797;28;20540;-70
2023/04/21 08:52:07;;;;;;;26.67;14.93;;;11.40;99.90;;;;;;5005475;28;20527;-71
2023/04/21 08:54:37;;;;;;;26.80;15.67;;;11.50;99.90;;;;;;4991430;28;20472;-71
2023/04/21 08:57:03;;;;;;;27.80;13.80;;;11.60;99.90;;;;;;5022113;28;20556;-71
2023/04/21 08:59:30;;;;;;;23.20;15.10;;;11.70;99.90;;;;;;5009521;28;20559;-71
2023/04/21 09:02:12;;;;;;;23.13;13.60;;;11.90;99.90;;;;;;5006322;28;20249;-71
2023/04/21 09:04:42;;;;;;;21.13;13.17;;;12.10;99.90;;;;;;4989447;28;20888;-71
2023/04/21 09:07:08;;;;;;;21.90;14.37;;;12.00;99.90;;;;;;5008385;28;20481;-70
2023/04/21 09:09:54;;;;;;;21.63;14.40;;;12.10;99.90;;;;;;5008408;28;20516;-71
2023/04/21 09:12:21;;;;;;;19.53;12.70;;;12.10;99.90;;;;;;5009344;28;20614;-70
2023/04/21 09:14:47;;;;;;;20.90;12.27;;;12.20;99.90;;;;;;5010169;28;20978;-71
2023/04/21 09:17:15;;;;;;;20.20;11.70;;;12.30;99.90;;;;;;5008952;28;20453;-71
2023/04/21 09:19:41;;;;;;;19.10;11.47;;;12.30;99.90;;;;;;5005399;28;20464;-70
2023/04/21 09:22:07;;;;;;;16.77;10.80;;;12.30;99.90;;;;;;5003424;28;20467;-71
2023/04/21 09:24:32;;;;;;;13.50;8.97;;;12.40;99.90;;;;;;4992248;28;20790;-71
2023/04/21 09:27:01;;;;;;;13.27;9.00;;;12.60;99.90;;;;;;5006974;28;20234;-70
2023/04/21 09:29:27;;;;;;;14.10;8.70;;;12.60;99.90;;;;;;4991786;28;20209;-71
2023/04/21 09:31:52;;;;;;;11.17;7.40;;;12.70;99.90;;;;;;5008211;28;20468;-71
2023/04/21 09:34:20;;;;;;;10.30;7.43;;;12.70;99.90;;;;;;5006200;28;20237;-72
2023/04/21 09:36:47;;;;;;;13.67;8.50;;;12.80;99.90;;;;;;5008381;28;20237;-71
2023/04/21 09:39:13;;;;;;;12.27;7.90;;;12.90;99.90;;;;;;5008066;28;20483;-71
2023/04/21 09:41:39;;;;;;;8.50;6.87;;;12.70;99.90;;;;;;5005316;28;20477;-71
2023/04/21 09:44:05;;;;;;;11.27;7.33;;;12.70;99.90;;;;;;5005120;28;21011;-71
2023/04/21 09:46:33;;;;;;;9.67;7.13;;;12.70;99.90;;;;;;5005850;28;20460;-71
2023/04/21 09:49:00;;;;;;;13.47;9.70;;;13.00;99.90;;;;;;5000759;28;20233;-72
2023/04/21 09:51:27;;;;;;;16.07;7.80;;;13.30;99.90;;;;;;5000534;28;20514;-70
2023/04/21 09:53:58;;;;;;;11.30;7.83;;;13.40;99.90;;;;;;5008866;28;20441;-72
2023/04/21 09:56:25;;;;;;;13.13;8.00;;;13.30;99.90;;;;;;4993517;28;20460;-71
2023/04/21 09:58:59;;;;;;;11.20;7.57;;;13.30;99.90;;;;;;5008405;28;20978;-71
2023/04/21 10:01:28;;;;;;;12.93;7.60;;;13.60;99.90;;;;;;4989918;28;20518;-70
2023/04/21 10:03:54;;;;;;;12.20;8.50;;;13.80;99.90;;;;;;5005666;28;20461;-71
2023/04/21 10:06:20;;;;;;;13.70;7.93;;;13.90;99.90;;;;;;5005018;28;20536;-69
2023/04/21 10:08:46;;;;;;;9.93;7.23;;;13.80;99.90;;;;;;5007850;28;20472;-69
2023/04/21 10:11:13;;;;;;;11.00;7.20;;;14.00;99.90;;;;;;5006560;28;20217;-69
2023/04/21 10:13:40;;;;;;;10.13;7.70;;;14.20;99.90;;;;;;5004965;28;20441;-70
2023/04/21 10:16:09;;;;;;;10.90;7.83;;;14.40;99.90;;;;;;5019072;28;20465;-69
2023/04/21 10:18:43;;;;;;;13.67;8.80;;;14.50;99.90;;;;;;4998620;28;20453;-69
2023/04/21 10:21:20;;;;;;;11.90;8.83;;;14.20;99.90;;;;;;4986741;28;20555;-70
2023/04/21 10:23:52;;;;;;;16.87;8.80;;;14.30;99.90;;;;;;5001366;28;20497;-70
2023/04/21 10:26:31;;;;;;;14.13;8.40;;;14.40;99.90;;;;;;5006940;28;20486;-71
2023/04/21 10:29:04;;;;;;;12.80;7.40;;;14.60;99.90;;;;;;5006742;28;20997;-69
2023/04/21 10:31:43;;;;;;;13.93;8.33;;;14.60;99.90;;;;;;5002759;28;20465;-69
2023/04/21 10:34:11;;;;;;;11.43;7.67;;;14.70;99.90;;;;;;4993313;28;20453;-69
2023/04/21 10:36:45;;;;;;;11.97;8.07;;;14.80;99.90;;;;;;5001966;28;20458;-70
2023/04/21 10:39:25;;;;;;;10.90;7.90;;;15.30;99.90;;;;;;5005586;28;20469;-69
2023/04/21 10:41:53;;;;;;;13.30;8.73;;;15.20;99.90;;;;;;4988740;28;20456;-70
2023/04/21 10:44:21;;;;;;;14.70;9.43;;;15.40;99.90;;;;;;5002986;28;20843;-70
2023/04/21 10:46:51;;;;;;;15.27;10.00;;;15.20;99.90;;;;;;5003172;28;20473;-70
2023/04/21 10:49:31;;;;;;;13.03;7.47;;;14.90;99.90;;;;;;5007827;28;20453;-69
2023/04/21 10:51:57;;;;;;;12.47;8.30;;;15.20;99.90;;;;;;5005390;28;20492;-70
2023/04/21 10:54:26;;;;;;;12.23;8.27;;;15.20;99.90;;;;;;4992183;28;20467;-68
2023/04/21 10:56:56;;;;;;;11.80;8.70;;;15.20;99.90;;;;;;4997506;28;20637;-70
2023/04/21 10:59:23;;;;;;;10.63;7.37;;;15.20;99.90;;;;;;5000406;28;20597;-69
2023/04/21 11:01:49;;;;;;;10.43;7.50;;;14.90;99.90;;;;;;5004256;28;20445;-71
2023/04/21 11:04:15;;;;;;;10.70;8.00;;;15.10;99.90;;;;;;4991169;28;21027;-69
2023/04/21 11:06:41;;;;;;;11.30;7.70;;;15.50;99.90;;;;;;5006440;28;20218;-69
2023/04/21 11:09:08;;;;;;;9.60;6.43;;;15.50;99.90;;;;;;4987654;28;20467;-70
2023/04/21 11:11:35;;;;;;;8.63;5.77;;;15.90;99.90;;;;;;5005710;28;20567;-70
2023/04/21 11:14:01;;;;;;;9.80;6.37;;;16.10;99.90;;;;;;5004165;28;20484;-69
2023/04/21 11:16:27;;;;;;;11.20;8.30;;;16.20;99.90;;;;;;5003149;28;20457;-70
2023/04/21 11:18:55;;;;;;;10.27;7.53;;;15.90;99.90;;;;;;4997537;28;20599;-69
2023/04/21 11:21:23;;;;;;;9.90;7.00;;;15.60;99.90;;;;;;5001560;28;20225;-69
2023/04/21 11:23:55;;;;;;;10.57;6.57;;;15.50;99.90;;;;;;5006125;28;20460;-69
2023/04/21 11:26:37;;;;;;;9.30;6.90;;;15.50;99.90;;;;;;5004962;28;20453;-69
2023/04/21 11:29:05;;;;;;;8.10;5.73;;;15.90;99.90;;;;;;5004705;28;20511;-70
2023/04/21 11:31:31;;;;;;;10.47;7.10;;;16.10;99.90;;;;;;4989497;28;20990;-70
2023/04/21 11:34:01;;;;;;;11.10;7.63;;;15.80;99.90;;;;;;4998842;28;20833;-70
2023/04/21 11:36:26;;;;;;;11.50;7.60;;;15.50;99.90;;;;;;5000699;28;20457;-68
2023/04/21 11:38:52;;;;;;;12.40;8.10;;;15.60;99.90;;;;;;5000984;28;20449;-70
2023/04/21 11:41:22;;;;;;;12.27;8.97;;;15.70;99.90;;;;;;5003901;28;20226;-72
2023/04/21 11:43:49;;;;;;;10.70;8.00;;;15.50;99.90;;;;;;5007822;28;20597;-69
2023/04/21 11:46:25;;;;;;;12.50;8.60;;;15.50;99.90;;;;;;5006191;28;20449;-70
2023/04/21 11:49:05;;;;;;;10.53;7.57;;;15.20;99.90;;;;;;4986403;28;20522;-69
2023/04/21 11:51:41;;;;;;;8.57;6.10;;;15.40;99.90;;;;;;5004290;28;20477;-69
2023/04/21 11:54:12;;;;;;;13.50;9.20;;;15.60;99.90;;;;;;4987393;28;20459;-69
2023/04/21 11:56:46;;;;;;;10.60;8.03;;;15.30;99.90;;;;;;5006320;28;20468;-70
2023/04/21 11:59:21;;;;;;;15.67;9.83;;;15.30;99.90;;;;;;5014810;28;20496;-70
2023/04/21 12:01:52;;;;;;;13.23;9.03;;;15.20;99.90;;;;;;5006268;28;20835;-70
2023/04/21 12:04:19;;;;;;;14.10;9.03;;;15.20;99.90;;;;;;5003999;28;20471;-72
2023/04/21 12:06:46;;;;;;;12.77;9.10;;;15.10;99.90;;;;;;5006762;28;20459;-70
2023/04/21 12:09:19;;;;;;;13.83;9.00;;;15.20;99.90;;;;;;5005093;28;20507;-71
2023/04/21 12:11:53;;;;;;;14.30;9.20;;;15.40;99.90;;;;;;5005965;28;20528;-69
2023/04/21 12:14:20;;;;;;;12.97;9.77;;;15.60;99.90;;;;;;5007319;28;20500;-70
2023/04/21 12:16:51;;;;;;;14.07;10.30;;;15.30;99.90;;;;;;4992164;28;20457;-69
2023/04/21 12:19:38;;;;;;;15.37;10.37;;;15.40;99.90;;;;;;5002555;28;20468;-69
2023/04/21 12:22:11;;;;;;;14.70;10.40;;;15.40;99.90;;;;;;5002722;28;20448;-69
2023/04/21 12:24:37;;;;;;;14.43;9.30;;;15.40;99.90;;;;;;5001141;28;20483;-70
2023/04/21 12:27:05;;;;;;;13.93;10.20;;;15.80;99.90;;;;;;5003211;28;20465;-69
2023/04/21 12:29:31;;;;;;;15.20;11.27;;;15.80;99.90;;;;;;5005308;28;20460;-69
2023/04/21 12:31:56;;;;;;;18.87;11.50;;;15.60;99.90;;;;;;5004207;28;20473;-70
2023/04/21 12:34:22;;;;;;;13.87;10.70;;;15.20;99.90;;;;;;5002359;28;20477;-69
2023/04/21 12:36:48;;;;;;;12.00;9.70;;;15.30;99.90;;;;;;4999514;28;20218;-70